Terminal Aerodrome Forecast
Issued by NWS Mt. Holly, NJ

Home | Current Version | Previous Version | Text Only | Print | Product List | Glossary On
Versions: 1 2 3 4 5 6 7 8 9 10 11 12 13 14 15 16
220
FTUS41 KPHI 161730
TAFILG
TAF
KILG 161730Z 1618/1718 VRB03KT P6SM BKN060
     FM170400 VRB03KT 6SM -RA OVC025
     FM170700 33006KT 5SM -RASN OVC015
     FM170800 33006KT 2SM -SN OVC012
     FM171200 32011KT P6SM OVC012
     FM171400 32013KT P6SM OVC035=

USA.gov is the U.S. government's official web portal to all federal, state and local government web resources and services.